Terminal Aerodrome Forecast
Issued by NWS

Home | Current Version | Previous Version | Text Only | Print | Product List | Glossary On
Versions: 1 2 3 4 5 6 7 8 9 10 11 12 13 14 15 16 17 18 19 20 21 22 23 24 25 26 27 28 29 30 31 32 33 34 35 36 37 38 39
000
FTUS44 KFWD 240520
TAFDAL
TAF
KDAL 240520Z 2406/2506 16016KT 6SM -RA BR VCTS SCT015CB BKN025
      TEMPO 2406/2410 3SM TSRA BR BKN012CB
     FM241400 16016KT P6SM VCSH OVC015
     FM241800 17018KT P6SM VCSH BKN015 OVC025
      TEMPO 2418/2422 5SM -SHRA BR
     FM242300 17015KT P6SM VCSH BKN040
     FM250400 17015KT 5SM BR BKN012=

USA.gov is the U.S. government's official web portal to all federal, state and local government web resources and services.